Time;durP1;ratioP1;P1;durP2;ratioP2;P2;SDS_P1;SDS_P2;PMS_P1;PMS_P2;Temp;Humidity;BMP_temperature;BMP_pressure;BME280_temperature;BME280_humidity;BME280_pressure;Samples;Min_cycle;Max_cycle;Signal;HPM_P1;HPM_P2
2023/12/17 00:02:21;;;;;;;12.67;9.23;;;8.80;99.90;;;;;;5051479;28;20468;-78
2023/12/17 00:07:57;;;;;;;13.90;10.23;;;8.90;99.90;;;;;;5041511;28;20454;-80
2023/12/17 00:10:50;;;;;;;14.50;8.97;;;8.90;99.90;;;;;;5048571;28;20943;-78
2023/12/17 00:13:28;;;;;;;13.03;7.70;;;8.90;99.90;;;;;;5046350;28;20472;-79
2023/12/17 00:15:55;;;;;;;10.90;8.90;;;8.90;99.90;;;;;;5050395;28;20443;-79
2023/12/17 00:18:21;;;;;;;12.20;10.70;;;8.90;99.90;;;;;;5053041;28;20449;-79
2023/12/17 00:20:48;;;;;;;13.60;9.60;;;8.90;99.90;;;;;;5050745;28;21003;-78
2023/12/17 00:23:15;;;;;;;15.93;9.50;;;8.90;99.90;;;;;;5044496;28;20466;-79
2023/12/17 00:25:43;;;;;;;12.83;9.17;;;8.80;99.90;;;;;;5052795;28;20454;-78
2023/12/17 00:28:11;;;;;;;14.20;9.97;;;8.80;99.90;;;;;;5035318;28;20473;-79
2023/12/17 00:30:38;;;;;;;16.23;9.83;;;8.80;99.90;;;;;;5036628;28;20519;-78
2023/12/17 00:33:09;;;;;;;12.90;9.53;;;8.70;99.90;;;;;;5049898;28;20464;-78
2023/12/17 00:35:36;;;;;;;16.00;10.57;;;8.80;99.90;;;;;;5053585;28;20479;-79
2023/12/17 00:38:03;;;;;;;10.30;8.23;;;8.80;99.90;;;;;;5035224;28;20455;-79
2023/12/17 00:40:30;;;;;;;12.50;8.60;;;8.90;99.90;;;;;;5052460;28;20487;-78
2023/12/17 00:42:58;;;;;;;14.17;8.83;;;8.90;99.90;;;;;;5055413;28;20457;-78
2023/12/17 00:45:25;;;;;;;13.20;8.90;;;8.90;99.90;;;;;;5055339;28;20498;-77
2023/12/17 00:47:51;;;;;;;14.00;9.80;;;9.00;99.90;;;;;;5045112;28;20985;-77
2023/12/17 00:50:18;;;;;;;14.07;9.90;;;8.90;99.90;;;;;;5054749;28;20484;-78
2023/12/17 00:52:45;;;;;;;13.37;8.57;;;8.80;99.90;;;;;;5053411;28;21017;-79
2023/12/17 00:55:12;;;;;;;15.10;10.07;;;8.90;99.90;;;;;;5055625;28;20533;-78
2023/12/17 00:57:39;;;;;;;15.50;9.67;;;8.90;99.90;;;;;;5055453;28;20451;-77
2023/12/17 01:00:08;;;;;;;13.83;9.83;;;8.90;99.90;;;;;;5054060;28;20478;-78
2023/12/17 01:02:35;;;;;;;14.33;9.70;;;8.90;99.90;;;;;;5051210;28;20458;-78
2023/12/17 01:05:02;;;;;;;11.97;8.70;;;8.90;99.90;;;;;;5054634;28;20524;-79
2023/12/17 01:07:29;;;;;;;16.30;11.07;;;8.90;99.90;;;;;;5050240;28;20992;-77
2023/12/17 01:09:59;;;;;;;13.33;9.20;;;8.90;99.90;;;;;;5053981;28;20525;-78
2023/12/17 01:12:25;;;;;;;17.47;11.23;;;9.00;99.90;;;;;;5050586;28;20460;-77
2023/12/17 01:14:52;;;;;;;19.17;11.97;;;9.00;99.90;;;;;;5054830;28;20451;-78
2023/12/17 01:17:20;;;;;;;17.20;10.00;;;8.90;99.90;;;;;;5049023;28;20476;-78
2023/12/17 01:19:47;;;;;;;13.10;9.23;;;9.00;99.90;;;;;;5053676;28;20496;-80
2023/12/17 01:22:14;;;;;;;12.17;10.23;;;8.90;99.90;;;;;;5050496;28;20986;-77
2023/12/17 01:24:41;;;;;;;12.57;10.00;;;9.00;99.90;;;;;;5055492;28;20490;-79
2023/12/17 01:27:08;;;;;;;12.80;10.13;;;9.00;99.90;;;;;;5053531;28;20504;-77
2023/12/17 01:29:35;;;;;;;14.17;9.57;;;9.00;99.90;;;;;;5040999;28;20475;-79
2023/12/17 01:32:02;;;;;;;12.00;7.90;;;9.00;99.90;;;;;;5052932;28;20462;-78
2023/12/17 01:34:30;;;;;;;10.33;8.10;;;9.00;99.90;;;;;;5061706;28;20830;-78
2023/12/17 01:36:56;;;;;;;13.97;8.60;;;9.10;99.90;;;;;;5057139;28;20459;-78
2023/12/17 01:39:23;;;;;;;10.87;8.73;;;9.10;99.90;;;;;;5041462;28;20500;-79
2023/12/17 01:41:50;;;;;;;15.43;11.10;;;9.20;99.90;;;;;;5058692;28;20464;-77
2023/12/17 01:44:17;;;;;;;14.20;9.20;;;9.10;99.90;;;;;;5052700;28;20486;-78
2023/12/17 01:46:44;;;;;;;11.93;9.43;;;9.10;99.90;;;;;;5060543;28;20459;-78
2023/12/17 01:49:11;;;;;;;11.00;8.93;;;9.00;99.90;;;;;;5060063;28;20473;-79
2023/12/17 01:51:44;;;;;;;15.60;10.13;;;9.00;99.90;;;;;;5051773;28;20826;-77
2023/12/17 01:54:12;;;;;;;12.90;9.50;;;9.00;99.90;;;;;;5060818;28;20942;-78
2023/12/17 01:56:39;;;;;;;15.23;10.03;;;8.90;99.90;;;;;;5061436;28;20451;-77
2023/12/17 01:59:06;;;;;;;15.03;10.93;;;8.90;99.90;;;;;;5061017;28;20473;-78
2023/12/17 02:01:33;;;;;;;11.63;10.37;;;8.90;99.90;;;;;;5061553;28;20456;-79
2023/12/17 02:04:00;;;;;;;14.87;11.37;;;8.90;99.90;;;;;;5061809;28;21130;-79
2023/12/17 02:06:27;;;;;;;14.33;9.83;;;8.90;99.90;;;;;;5060950;28;20843;-79
2023/12/17 02:08:55;;;;;;;10.97;8.83;;;9.00;99.90;;;;;;5051852;28;20557;-79
2023/12/17 02:11:22;;;;;;;12.57;10.00;;;9.00;99.90;;;;;;5058046;28;20835;-79
2023/12/17 02:13:49;;;;;;;15.00;10.63;;;9.00;99.90;;;;;;5053209;28;20469;-79
2023/12/17 02:16:16;;;;;;;14.07;10.40;;;8.80;99.90;;;;;;5061133;28;20451;-80
2023/12/17 02:18:43;;;;;;;11.50;9.63;;;8.80;99.90;;;;;;5061067;28;20464;-78
2023/12/17 02:21:10;;;;;;;14.47;11.20;;;8.90;99.90;;;;;;5059584;28;20458;-78
2023/12/17 02:23:38;;;;;;;12.90;10.20;;;8.90;99.90;;;;;;5060435;28;20455;-78
2023/12/17 02:26:06;;;;;;;11.03;9.90;;;9.00;99.90;;;;;;5060639;28;21025;-78
2023/12/17 02:28:35;;;;;;;12.60;10.07;;;9.00;99.90;;;;;;5061095;28;20454;-78
2023/12/17 02:31:03;;;;;;;12.00;9.03;;;8.90;99.90;;;;;;5061531;28;20554;-79
2023/12/17 02:33:30;;;;;;;11.07;8.83;;;9.00;99.90;;;;;;5060047;28;20544;-79
2023/12/17 02:35:57;;;;;;;12.17;8.97;;;9.00;99.90;;;;;;5061594;28;20462;-78
2023/12/17 02:38:23;;;;;;;10.27;9.17;;;9.00;99.90;;;;;;5041083;28;20942;-79
2023/12/17 02:40:52;;;;;;;12.50;9.73;;;9.10;99.90;;;;;;5056015;28;20464;-80
2023/12/17 02:43:18;;;;;;;10.83;9.50;;;9.10;99.90;;;;;;5055442;28;20963;-79
2023/12/17 02:45:45;;;;;;;9.80;8.80;;;9.00;99.90;;;;;;5056514;28;20501;-79
2023/12/17 02:48:12;;;;;;;11.00;9.80;;;9.10;99.90;;;;;;5038421;28;20488;-78
2023/12/17 02:50:39;;;;;;;14.27;8.50;;;9.00;99.90;;;;;;5043876;28;20481;-79
2023/12/17 02:53:05;;;;;;;11.90;8.60;;;9.10;99.90;;;;;;5052560;28;20461;-77
2023/12/17 02:55:32;;;;;;;10.67;8.90;;;9.00;99.90;;;;;;5056020;28;20458;-80
2023/12/17 02:58:00;;;;;;;11.20;9.23;;;9.00;99.90;;;;;;5054985;28;20501;-77
2023/12/17 03:00:27;;;;;;;12.80;9.73;;;8.90;99.90;;;;;;5055134;28;21038;-78
2023/12/17 03:02:54;;;;;;;11.70;9.10;;;9.00;99.90;;;;;;5055643;28;20568;-77
2023/12/17 03:05:21;;;;;;;9.97;8.37;;;9.00;99.90;;;;;;5052644;28;20518;-78
2023/12/17 03:07:48;;;;;;;11.93;9.40;;;9.00;99.90;;;;;;5055178;28;20458;-77
2023/12/17 03:10:14;;;;;;;11.57;8.90;;;9.00;99.90;;;;;;5047824;28;20850;-77
2023/12/17 03:12:41;;;;;;;10.70;8.60;;;9.00;99.90;;;;;;5052983;28;20468;-77
2023/12/17 03:15:10;;;;;;;10.00;8.77;;;9.10;99.90;;;;;;5049815;28;20480;-77
2023/12/17 03:17:39;;;;;;;11.80;8.60;;;9.00;99.90;;;;;;5051056;28;20522;-76
2023/12/17 03:20:11;;;;;;;10.53;8.40;;;9.00;99.90;;;;;;5055059;28;20546;-77
2023/12/17 03:22:38;;;;;;;12.63;9.23;;;9.00;99.90;;;;;;5056211;28;20450;-77
2023/12/17 03:25:06;;;;;;;11.90;8.43;;;8.90;99.90;;;;;;5050030;28;20682;-77
2023/12/17 03:27:33;;;;;;;11.83;8.10;;;9.00;99.90;;;;;;5036533;28;20532;-77
2023/12/17 03:30:01;;;;;;;12.70;8.77;;;9.00;99.90;;;;;;5042234;28;20858;-78
2023/12/17 03:32:29;;;;;;;13.17;9.30;;;8.90;99.90;;;;;;5056203;28;20536;-77
2023/12/17 03:34:56;;;;;;;16.83;8.70;;;8.90;99.90;;;;;;5052216;28;20462;-78
2023/12/17 03:37:22;;;;;;;10.53;8.33;;;8.90;99.90;;;;;;5052440;28;20454;-79
2023/12/17 03:39:50;;;;;;;12.83;9.27;;;8.90;99.90;;;;;;5043004;28;20479;-77
2023/12/17 03:42:17;;;;;;;11.40;8.20;;;8.90;99.90;;;;;;5046367;28;20501;-79
2023/12/17 03:44:44;;;;;;;13.37;10.07;;;8.90;99.90;;;;;;5052598;28;21017;-78
2023/12/17 03:47:11;;;;;;;12.40;8.80;;;8.80;99.90;;;;;;5043554;28;20788;-79
2023/12/17 03:49:39;;;;;;;13.10;9.07;;;8.90;99.90;;;;;;5053970;28;20596;-79
2023/12/17 03:52:07;;;;;;;12.33;8.80;;;8.80;99.90;;;;;;5048849;28;20459;-78
2023/12/17 03:54:37;;;;;;;12.90;10.23;;;8.80;99.90;;;;;;5054087;28;20446;-78
2023/12/17 03:57:04;;;;;;;13.23;9.20;;;8.70;99.90;;;;;;5049385;28;20467;-79
2023/12/17 03:59:31;;;;;;;13.07;9.47;;;8.80;99.90;;;;;;5053202;28;20485;-77
2023/12/17 04:02:01;;;;;;;12.40;9.07;;;8.90;99.90;;;;;;5044003;28;20461;-78
2023/12/17 04:04:28;;;;;;;13.67;9.97;;;8.80;99.90;;;;;;5054987;28;20454;-79
2023/12/17 04:06:56;;;;;;;12.60;9.97;;;8.90;99.90;;;;;;5047764;28;20463;-77
2023/12/17 04:09:23;;;;;;;11.60;9.47;;;8.90;99.90;;;;;;5055984;28;21030;-78
2023/12/17 04:11:50;;;;;;;13.90;10.17;;;8.90;99.90;;;;;;5048584;28;20449;-77
2023/12/17 04:14:16;;;;;;;12.50;9.20;;;8.90;99.90;;;;;;5056388;28;20487;-77
2023/12/17 04:16:52;;;;;;;13.27;10.40;;;8.90;99.90;;;;;;5049870;28;20453;-79
2023/12/17 04:19:19;;;;;;;13.27;11.00;;;8.80;99.90;;;;;;5055219;28;20470;-78
2023/12/17 04:21:45;;;;;;;12.50;10.13;;;8.80;99.90;;;;;;5051860;28;21008;-78
2023/12/17 04:24:14;;;;;;;12.77;10.33;;;8.90;99.90;;;;;;5055073;28;20457;-79
2023/12/17 04:26:40;;;;;;;10.77;8.90;;;8.90;99.90;;;;;;5045111;28;21032;-78
2023/12/17 04:29:07;;;;;;;10.80;9.00;;;8.90;99.90;;;;;;5034872;28;20499;-78
2023/12/17 04:31:34;;;;;;;10.93;8.90;;;9.00;99.90;;;;;;5048518;28;20457;-79
2023/12/17 04:34:01;;;;;;;9.73;8.23;;;9.00;99.90;;;;;;5054328;28;20487;-78
2023/12/17 04:36:28;;;;;;;14.87;9.70;;;9.00;99.90;;;;;;5045696;28;20444;-78
2023/12/17 04:38:54;;;;;;;12.30;10.30;;;9.00;99.90;;;;;;5047969;28;20492;-78
2023/12/17 04:41:22;;;;;;;12.27;10.57;;;9.00;99.90;;;;;;5045901;28;20474;-79
2023/12/17 04:43:49;;;;;;;13.97;10.80;;;8.90;99.90;;;;;;5035106;28;20833;-79
2023/12/17 04:46:16;;;;;;;10.93;9.80;;;8.80;99.90;;;;;;5047367;28;20865;-77
2023/12/17 04:48:43;;;;;;;11.37;9.50;;;8.80;99.90;;;;;;5035626;28;20453;-78
2023/12/17 04:51:10;;;;;;;15.33;11.13;;;8.80;99.90;;;;;;5043582;28;20462;-79
2023/12/17 04:53:36;;;;;;;12.83;9.60;;;8.90;99.90;;;;;;5035478;28;20454;-79
2023/12/17 04:56:04;;;;;;;9.90;8.90;;;8.90;99.90;;;;;;5044453;28;20457;-77
2023/12/17 04:58:35;;;;;;;11.87;9.37;;;8.80;99.90;;;;;;5054484;28;20538;-78
2023/12/17 05:01:02;;;;;;;13.60;10.37;;;8.80;99.90;;;;;;5047660;28;20466;-77
2023/12/17 05:03:29;;;;;;;10.97;8.60;;;8.80;99.90;;;;;;5035364;28;20951;-77
2023/12/17 05:05:55;;;;;;;10.93;9.60;;;8.90;99.90;;;;;;5043084;28;20504;-77
2023/12/17 05:08:22;;;;;;;12.53;10.33;;;8.80;99.90;;;;;;5054238;28;20457;-78
2023/12/17 05:10:49;;;;;;;11.03;8.90;;;8.80;99.90;;;;;;5043335;28;20552;-78
2023/12/17 05:13:16;;;;;;;12.73;9.70;;;8.90;99.90;;;;;;5047483;28;20454;-79
2023/12/17 05:15:44;;;;;;;11.80;10.17;;;8.90;99.90;;;;;;5053620;28;21218;-78
2023/12/17 05:18:11;;;;;;;13.27;10.77;;;8.90;99.90;;;;;;5054174;28;20453;-79
2023/12/17 05:20:38;;;;;;;10.00;8.60;;;8.80;99.90;;;;;;5051260;28;20475;-79
2023/12/17 05:23:05;;;;;;;12.60;10.57;;;8.80;99.90;;;;;;5034384;28;20961;-77
2023/12/17 05:25:32;;;;;;;12.73;9.83;;;8.80;99.90;;;;;;5037954;28;20521;-77
2023/12/17 05:27:58;;;;;;;11.60;9.90;;;8.90;99.90;;;;;;5046602;28;20461;-78
2023/12/17 05:30:25;;;;;;;11.53;9.47;;;8.90;99.90;;;;;;5052615;28;20482;-78
2023/12/17 05:32:53;;;;;;;11.77;8.97;;;8.90;99.90;;;;;;5043748;28;20456;-78
2023/12/17 05:35:20;;;;;;;13.30;9.63;;;8.90;99.90;;;;;;5037933;28;20452;-79
2023/12/17 05:37:47;;;;;;;13.17;10.47;;;8.80;99.90;;;;;;5034250;28;20485;-78
2023/12/17 05:40:14;;;;;;;14.67;10.97;;;8.90;99.90;;;;;;5040213;28;20502;-78
2023/12/17 05:42:41;;;;;;;12.90;10.00;;;8.80;99.90;;;;;;5037367;28;20460;-78
2023/12/17 05:45:08;;;;;;;15.47;10.50;;;8.80;99.90;;;;;;5053614;28;20486;-77
2023/12/17 05:47:35;;;;;;;11.33;9.50;;;8.70;99.90;;;;;;5054666;28;20799;-78
2023/12/17 05:50:04;;;;;;;11.50;9.60;;;8.70;99.90;;;;;;5053409;28;20481;-77
2023/12/17 05:52:31;;;;;;;11.70;9.47;;;8.70;99.90;;;;;;5051831;28;20455;-78
2023/12/17 05:54:58;;;;;;;11.53;9.03;;;8.70;99.90;;;;;;5055514;28;21079;-78
2023/12/17 05:57:24;;;;;;;11.87;10.17;;;8.70;99.90;;;;;;5045117;28;20457;-78
2023/12/17 05:59:51;;;;;;;10.20;8.83;;;8.70;99.90;;;;;;5054275;28;20469;-78
2023/12/17 06:02:18;;;;;;;13.93;9.50;;;8.60;99.90;;;;;;5054729;28;20448;-79
2023/12/17 06:04:45;;;;;;;14.63;9.83;;;8.70;99.90;;;;;;5054249;28;20441;-77
2023/12/17 06:07:13;;;;;;;12.07;9.50;;;8.60;99.90;;;;;;5041084;28;20489;-78
2023/12/17 06:09:40;;;;;;;13.17;10.23;;;8.70;99.90;;;;;;5036271;28;20485;-78
2023/12/17 06:12:10;;;;;;;14.60;10.10;;;8.70;99.90;;;;;;5050435;28;20459;-78
2023/12/17 06:14:37;;;;;;;11.87;8.73;;;8.70;99.90;;;;;;5039761;28;20472;-78
2023/12/17 06:17:05;;;;;;;11.77;8.80;;;8.70;99.90;;;;;;5059420;28;20481;-80
2023/12/17 06:19:31;;;;;;;12.30;9.40;;;8.60;99.90;;;;;;5059975;28;20618;-78
2023/12/17 06:22:00;;;;;;;10.77;7.83;;;8.60;99.90;;;;;;5061660;28;20487;-79
2023/12/17 06:24:28;;;;;;;15.07;10.03;;;8.60;99.90;;;;;;5060444;28;20548;-80
2023/12/17 06:26:55;;;;;;;14.70;9.50;;;8.70;99.90;;;;;;5056793;28;20486;-79
2023/12/17 06:29:22;;;;;;;12.20;9.10;;;8.70;99.90;;;;;;5059910;28;20482;-79
2023/12/17 06:31:48;;;;;;;12.83;9.73;;;8.70;99.90;;;;;;5048493;28;20455;-79
2023/12/17 06:34:15;;;;;;;13.23;10.53;;;8.70;99.90;;;;;;5042708;28;20454;-79
2023/12/17 06:36:42;;;;;;;10.80;9.30;;;8.70;99.90;;;;;;5055066;28;20456;-78
2023/12/17 06:39:10;;;;;;;12.57;9.37;;;8.60;99.90;;;;;;5053923;28;20467;-78
2023/12/17 06:41:44;;;;;;;13.77;10.00;;;8.80;99.90;;;;;;5047854;28;20440;-77
2023/12/17 06:44:11;;;;;;;9.93;8.70;;;8.80;99.90;;;;;;5054232;28;20958;-77
2023/12/17 06:46:37;;;;;;;11.27;9.30;;;8.70;99.90;;;;;;5053421;28;20515;-78
2023/12/17 06:49:04;;;;;;;11.17;9.23;;;8.70;99.90;;;;;;5052292;28;20493;-78
2023/12/17 06:51:31;;;;;;;11.10;9.87;;;8.70;99.90;;;;;;5053439;28;20458;-77
2023/12/17 06:53:58;;;;;;;11.00;8.60;;;8.70;99.90;;;;;;5054787;28;20484;-78
2023/12/17 06:56:25;;;;;;;14.80;9.40;;;8.70;99.90;;;;;;5055270;28;20457;-78
2023/12/17 06:58:53;;;;;;;11.00;9.00;;;8.80;99.90;;;;;;5053860;28;20473;-78
2023/12/17 07:01:20;;;;;;;10.60;8.10;;;8.80;99.90;;;;;;5053218;28;20466;-78
2023/12/17 07:03:46;;;;;;;11.60;10.07;;;8.80;99.90;;;;;;5053278;28;20460;-78
2023/12/17 07:06:13;;;;;;;12.47;9.10;;;8.80;99.90;;;;;;5050728;28;20572;-78
2023/12/17 07:08:41;;;;;;;13.27;10.27;;;8.70;99.90;;;;;;5054940;28;20462;-79
2023/12/17 07:11:09;;;;;;;13.50;10.30;;;8.60;99.90;;;;;;5049612;28;20545;-78
2023/12/17 07:13:35;;;;;;;13.53;10.57;;;8.50;99.90;;;;;;5053426;28;20492;-79
2023/12/17 07:16:04;;;;;;;15.03;11.73;;;8.50;99.90;;;;;;5052297;28;20447;-78
2023/12/17 07:18:31;;;;;;;15.37;11.37;;;8.60;99.90;;;;;;5052112;28;20454;-78
2023/12/17 07:20:58;;;;;;;14.70;11.17;;;8.60;99.90;;;;;;5047930;28;20458;-78
2023/12/17 07:23:27;;;;;;;12.97;10.73;;;8.60;99.90;;;;;;5054339;28;20472;-78
2023/12/17 07:25:54;;;;;;;13.50;10.83;;;8.60;99.90;;;;;;5050318;28;20486;-78
2023/12/17 07:28:20;;;;;;;15.27;11.47;;;8.50;99.90;;;;;;5051989;28;20461;-77
2023/12/17 07:30:49;;;;;;;17.90;11.57;;;8.60;99.90;;;;;;5050059;28;20483;-77
2023/12/17 07:33:18;;;;;;;13.40;10.57;;;8.50;99.90;;;;;;5049956;28;20454;-77
2023/12/17 07:35:45;;;;;;;15.43;12.83;;;8.60;99.90;;;;;;5050883;28;20461;-77
2023/12/17 07:38:14;;;;;;;12.37;9.90;;;8.60;99.90;;;;;;5055632;28;20450;-79
2023/12/17 07:40:41;;;;;;;11.37;8.80;;;8.50;99.90;;;;;;5039224;28;20866;-78
2023/12/17 07:43:08;;;;;;;10.43;8.83;;;8.50;99.90;;;;;;5048833;28;20500;-78
2023/12/17 07:45:36;;;;;;;11.47;8.63;;;8.50;99.90;;;;;;5058678;28;20972;-77
2023/12/17 07:48:03;;;;;;;11.27;8.03;;;8.60;99.90;;;;;;5058903;28;20467;-78
2023/12/17 07:50:31;;;;;;;10.10;7.70;;;8.70;99.90;;;;;;5056118;28;20502;-78
2023/12/17 07:52:58;;;;;;;15.70;9.70;;;8.70;99.90;;;;;;5058744;28;20459;-79
2023/12/17 07:55:25;;;;;;;8.93;8.00;;;8.70;99.90;;;;;;5058722;28;20453;-78
2023/12/17 07:57:52;;;;;;;10.13;8.40;;;8.60;99.90;;;;;;5055848;28;20511;-79
2023/12/17 08:00:19;;;;;;;8.73;7.50;;;8.60;99.90;;;;;;5051582;28;20486;-78
2023/12/17 08:02:46;;;;;;;8.20;7.33;;;8.70;99.90;;;;;;5054458;28;20553;-77
2023/12/17 08:05:13;;;;;;;8.63;6.70;;;8.70;99.90;;;;;;5054161;28;20454;-78
2023/12/17 08:07:41;;;;;;;8.23;6.47;;;8.70;99.90;;;;;;5051099;28;20498;-78
2023/12/17 08:10:08;;;;;;;11.00;7.33;;;8.80;99.90;;;;;;5060138;28;20466;-78
2023/12/17 08:12:38;;;;;;;9.00;6.00;;;8.80;99.90;;;;;;5063402;28;20491;-77
2023/12/17 08:15:06;;;;;;;9.13;6.63;;;8.80;99.90;;;;;;5060337;28;20800;-78
2023/12/17 08:17:33;;;;;;;9.60;6.90;;;8.60;99.90;;;;;;5056892;28;20490;-78
2023/12/17 08:19:59;;;;;;;7.67;6.20;;;8.60;99.90;;;;;;5053158;28;20475;-77
2023/12/17 08:22:26;;;;;;;6.90;6.03;;;8.60;99.90;;;;;;5050858;28;20465;-77
2023/12/17 08:24:54;;;;;;;7.07;5.40;;;8.70;99.90;;;;;;5049761;28;20457;-77
2023/12/17 08:27:21;;;;;;;11.63;5.87;;;8.60;99.90;;;;;;5053735;28;20507;-78
2023/12/17 08:29:50;;;;;;;6.10;5.50;;;8.60;99.90;;;;;;5058726;28;20473;-77
2023/12/17 08:32:17;;;;;;;6.03;5.00;;;8.70;99.90;;;;;;5059630;28;20530;-78
2023/12/17 08:34:44;;;;;;;8.43;5.93;;;8.60;99.90;;;;;;5055116;28;20909;-79
2023/12/17 08:37:11;;;;;;;6.93;5.80;;;8.70;99.90;;;;;;5057483;28;20451;-79
2023/12/17 08:39:39;;;;;;;10.07;7.40;;;8.60;99.90;;;;;;5058208;28;20507;-78
2023/12/17 08:42:08;;;;;;;7.50;5.67;;;8.60;99.90;;;;;;5059398;28;20455;-78
2023/12/17 08:44:35;;;;;;;12.93;7.50;;;8.50;99.90;;;;;;5058497;28;20460;-79
2023/12/17 08:47:02;;;;;;;5.50;4.93;;;8.40;99.90;;;;;;5060270;28;20492;-79
2023/12/17 08:49:29;;;;;;;4.77;3.80;;;8.50;99.90;;;;;;5059135;28;20554;-79
2023/12/17 08:52:27;;;;;;;4.50;3.63;;;8.50;99.90;;;;;;5054300;28;20462;-79
2023/12/17 08:54:54;;;;;;;5.10;3.40;;;8.50;99.90;;;;;;5057548;28;20452;-78
2023/12/17 08:57:22;;;;;;;4.00;3.43;;;8.40;99.90;;;;;;5059487;28;20448;-78
2023/12/17 08:59:49;;;;;;;7.13;4.30;;;8.50;99.90;;;;;;5058789;28;20473;-78
2023/12/17 09:02:16;;;;;;;5.10;4.27;;;8.40;99.90;;;;;;5055348;28;20454;-79
2023/12/17 09:04:43;;;;;;;4.23;3.40;;;8.40;99.90;;;;;;5053511;28;20975;-78
2023/12/17 09:07:10;;;;;;;4.17;3.37;;;8.50;99.90;;;;;;5061620;28;20512;-79
2023/12/17 09:09:37;;;;;;;3.67;2.90;;;8.50;99.90;;;;;;5058015;28;20472;-78
2023/12/17 09:12:04;;;;;;;3.87;3.13;;;8.40;99.90;;;;;;5058465;28;20456;-79
2023/12/17 09:14:35;;;;;;;5.13;3.60;;;8.20;99.90;;;;;;5062505;28;20513;-79
2023/12/17 09:17:03;;;;;;;3.70;3.23;;;8.40;99.90;;;;;;5053912;28;20530;-80
2023/12/17 09:19:29;;;;;;;4.97;3.17;;;8.30;99.90;;;;;;5059132;28;20531;-78
2023/12/17 09:21:56;;;;;;;4.63;3.40;;;8.30;99.90;;;;;;5053144;28;20460;-78
2023/12/17 09:24:23;;;;;;;3.43;2.93;;;8.30;99.90;;;;;;5052494;28;20529;-78
2023/12/17 09:26:52;;;;;;;5.03;3.30;;;8.40;99.90;;;;;;5061843;28;20479;-78
2023/12/17 09:29:20;;;;;;;7.30;4.37;;;8.40;99.90;;;;;;5066556;28;20472;-79
2023/12/17 09:31:48;;;;;;;5.60;4.03;;;8.30;99.90;;;;;;5064865;28;20503;-79
2023/12/17 09:34:15;;;;;;;6.10;5.00;;;8.30;99.90;;;;;;5068027;28;20529;-79
2023/12/17 09:36:45;;;;;;;6.77;4.67;;;8.10;99.90;;;;;;5066373;28;20450;-78
2023/12/17 09:39:12;;;;;;;6.83;5.53;;;8.00;99.90;;;;;;5063796;28;20568;-78
2023/12/17 09:41:40;;;;;;;6.90;5.23;;;8.10;99.90;;;;;;5067458;28;20455;-79
2023/12/17 09:44:07;;;;;;;10.00;6.40;;;8.20;99.90;;;;;;5068311;28;20461;-79
2023/12/17 09:46:35;;;;;;;8.30;7.07;;;8.30;99.90;;;;;;5057549;28;20489;-78
2023/12/17 09:49:03;;;;;;;8.83;7.43;;;8.30;99.90;;;;;;5057536;28;20491;-78
2023/12/17 09:51:37;;;;;;;9.90;7.53;;;8.40;99.90;;;;;;5051755;28;20451;-78
2023/12/17 09:54:06;;;;;;;9.57;7.17;;;8.50;99.90;;;;;;5062373;28;20555;-79
2023/12/17 09:56:35;;;;;;;11.73;7.57;;;8.60;99.90;;;;;;5056013;28;20467;-79
2023/12/17 09:59:02;;;;;;;10.17;6.83;;;8.60;99.90;;;;;;5060124;28;20471;-79
2023/12/17 10:01:29;;;;;;;10.70;7.00;;;8.60;99.90;;;;;;5055553;28;20545;-80
2023/12/17 10:03:57;;;;;;;8.10;6.70;;;8.60;99.90;;;;;;5055000;28;20471;-79
2023/12/17 10:06:25;;;;;;;10.70;7.50;;;8.70;99.90;;;;;;5058947;28;20554;-79
2023/12/17 10:08:56;;;;;;;9.40;7.60;;;8.60;99.90;;;;;;5061237;28;20505;-79
2023/12/17 10:11:24;;;;;;;8.40;6.77;;;8.80;99.90;;;;;;5058005;28;20491;-79
2023/12/17 10:13:52;;;;;;;11.00;7.60;;;8.90;99.90;;;;;;5056927;28;20520;-78
2023/12/17 10:16:18;;;;;;;13.37;8.40;;;9.00;99.90;;;;;;5061814;28;20530;-79
2023/12/17 10:18:48;;;;;;;14.83;8.70;;;9.00;99.90;;;;;;5057609;28;20465;-78
2023/12/17 10:21:15;;;;;;;12.47;7.70;;;8.90;99.90;;;;;;5060430;28;20481;-79
2023/12/17 10:23:50;;;;;;;12.63;9.20;;;8.80;99.90;;;;;;5046054;28;20473;-78
2023/12/17 10:26:17;;;;;;;13.67;8.20;;;8.90;99.90;;;;;;5061415;28;20453;-78
2023/12/17 10:28:46;;;;;;;15.93;8.70;;;8.90;99.90;;;;;;5057672;28;20481;-79
2023/12/17 10:31:17;;;;;;;12.80;9.90;;;9.00;99.90;;;;;;5057690;28;20524;-79
2023/12/17 10:33:51;;;;;;;12.53;7.70;;;9.00;99.90;;;;;;5064906;28;20446;-79
2023/12/17 10:36:19;;;;;;;15.43;10.30;;;8.90;99.90;;;;;;5060214;28;20538;-78
2023/12/17 10:38:49;;;;;;;11.60;8.60;;;8.80;99.90;;;;;;5053910;28;20539;-79
2023/12/17 10:41:17;;;;;;;10.47;7.90;;;8.90;99.90;;;;;;5054794;28;20460;-79
2023/12/17 10:43:45;;;;;;;12.37;8.23;;;9.00;99.90;;;;;;5058222;28;20477;-78
2023/12/17 10:46:20;;;;;;;12.20;8.50;;;8.90;99.90;;;;;;5066958;28;20514;-78
2023/12/17 10:48:48;;;;;;;10.50;8.17;;;9.00;99.90;;;;;;5062730;28;20558;-79
2023/12/17 10:51:17;;;;;;;13.37;9.33;;;9.00;99.90;;;;;;5060402;28;20451;-79
2023/12/17 10:53:44;;;;;;;13.83;9.80;;;9.20;99.90;;;;;;5066514;28;20489;-79
2023/12/17 10:56:14;;;;;;;10.90;9.30;;;9.00;99.90;;;;;;5063352;28;20521;-78
2023/12/17 10:58:42;;;;;;;12.83;9.73;;;9.00;99.90;;;;;;5063571;28;20471;-79
2023/12/17 11:01:10;;;;;;;14.67;9.40;;;9.10;99.90;;;;;;5064840;28;20489;-78
2023/12/17 11:03:41;;;;;;;15.30;9.93;;;9.10;99.90;;;;;;5065922;28;20449;-78
2023/12/17 11:06:09;;;;;;;14.03;9.40;;;8.90;99.90;;;;;;5065443;28;20440;-78
2023/12/17 11:08:38;;;;;;;15.43;9.20;;;8.90;99.90;;;;;;5065557;28;20896;-79
2023/12/17 11:11:05;;;;;;;14.30;10.27;;;9.00;99.90;;;;;;5059714;28;20454;-79
2023/12/17 11:13:35;;;;;;;14.17;10.17;;;9.00;99.90;;;;;;5064403;28;20481;-79
2023/12/17 11:16:21;;;;;;;14.07;9.20;;;9.00;99.90;;;;;;5069795;28;20515;-79
2023/12/17 11:18:59;;;;;;;16.63;11.27;;;9.00;99.90;;;;;;5066984;28;20477;-79
2023/12/17 11:21:28;;;;;;;18.77;11.73;;;8.90;99.90;;;;;;5066675;28;20458;-79
2023/12/17 11:23:56;;;;;;;14.50;9.97;;;8.90;99.90;;;;;;5060122;28;20783;-78
2023/12/17 11:26:23;;;;;;;12.30;9.20;;;9.20;99.90;;;;;;5066884;28;20453;-79
2023/12/17 11:28:52;;;;;;;15.73;8.77;;;9.10;99.90;;;;;;5062091;28;20525;-79
2023/12/17 11:31:20;;;;;;;14.07;9.40;;;9.10;99.90;;;;;;5064542;28;20474;-78
2023/12/17 11:33:47;;;;;;;15.50;10.40;;;9.10;99.90;;;;;;5056863;28;20486;-78
2023/12/17 11:36:15;;;;;;;16.73;10.30;;;9.00;99.90;;;;;;5059906;28;20455;-78
2023/12/17 11:38:41;;;;;;;15.30;12.00;;;9.00;99.90;;;;;;5056059;28;20456;-78
2023/12/17 11:41:08;;;;;;;13.03;9.00;;;9.00;99.90;;;;;;5058042;28;20461;-79
2023/12/17 11:43:35;;;;;;;12.33;9.03;;;9.20;99.90;;;;;;5062718;28;20457;-79
2023/12/17 11:46:04;;;;;;;13.27;9.67;;;9.30;99.90;;;;;;5058624;28;20454;-79
2023/12/17 11:48:32;;;;;;;13.70;10.83;;;9.40;99.90;;;;;;5061317;28;20520;-79
2023/12/17 11:51:01;;;;;;;12.13;9.30;;;9.50;99.90;;;;;;5061395;28;20537;-79
2023/12/17 11:53:30;;;;;;;13.40;9.60;;;9.60;99.90;;;;;;5054265;28;20479;-80
2023/12/17 11:55:59;;;;;;;9.97;8.67;;;9.80;99.90;;;;;;5059951;28;20542;-78
2023/12/17 11:58:26;;;;;;;11.30;8.53;;;9.70;99.90;;;;;;5062143;28;20475;-81
2023/12/17 12:01:09;;;;;;;14.37;11.03;;;9.80;99.90;;;;;;5060032;28;20457;-80
2023/12/17 12:03:37;;;;;;;11.50;9.20;;;9.80;99.90;;;;;;5058679;28;20486;-80
2023/12/17 12:06:08;;;;;;;12.83;8.67;;;9.80;99.90;;;;;;5054585;28;20451;-79
2023/12/17 12:08:35;;;;;;;11.57;8.70;;;9.80;99.90;;;;;;5061509;28;20479;-80
2023/12/17 12:11:03;;;;;;;13.03;10.70;;;9.80;99.90;;;;;;5061184;28;20455;-80
2023/12/17 12:13:30;;;;;;;12.97;9.77;;;9.40;99.90;;;;;;5058998;28;20455;-79
2023/12/17 12:15:58;;;;;;;11.70;9.87;;;9.60;99.90;;;;;;5057125;28;20475;-78
2023/12/17 12:18:26;;;;;;;12.77;10.93;;;9.50;99.90;;;;;;5062266;28;20458;-80
2023/12/17 12:20:54;;;;;;;12.30;10.10;;;9.50;99.90;;;;;;5059161;28;20469;-80
2023/12/17 12:23:25;;;;;;;11.77;9.60;;;9.40;99.90;;;;;;5064548;28;20506;-80
2023/12/17 12:25:58;;;;;;;13.20;11.30;;;9.50;99.90;;;;;;5064022;28;21016;-79
2023/12/17 12:28:25;;;;;;;13.77;10.87;;;9.40;99.90;;;;;;5061511;28;20485;-79
2023/12/17 12:30:51;;;;;;;12.73;11.13;;;9.40;99.90;;;;;;5059776;28;20459;-79
2023/12/17 12:33:19;;;;;;;13.00;10.70;;;9.50;99.90;;;;;;5062570;28;20522;-78
2023/12/17 12:35:48;;;;;;;14.03;11.57;;;9.30;99.90;;;;;;5061904;28;20482;-79
2023/12/17 12:38:20;;;;;;;12.70;9.77;;;9.30;99.90;;;;;;5058898;28;20461;-77
2023/12/17 12:40:47;;;;;;;10.40;8.97;;;9.40;99.90;;;;;;5058627;28;20579;-79
2023/12/17 12:43:16;;;;;;;13.93;11.70;;;9.30;99.90;;;;;;5060584;28;20539;-79
2023/12/17 12:45:43;;;;;;;13.20;10.60;;;9.30;99.90;;;;;;5059374;28;20459;-78
2023/12/17 12:48:17;;;;;;;11.40;9.10;;;9.30;99.90;;;;;;5060941;28;20514;-80
2023/12/17 12:50:44;;;;;;;14.33;9.37;;;9.40;99.90;;;;;;5057312;28;20498;-79
2023/12/17 12:53:12;;;;;;;11.67;8.13;;;9.40;99.90;;;;;;5061614;28;20547;-79